createdAt,value
2022-09-06T00:06:53.674Z,5.10
2022-09-06T00:16:55.689Z,4.78
2022-09-06T00:26:59.032Z,4.43
2022-09-06T00:37:01.138Z,4.93
2022-09-06T00:47:05.106Z,4.75
2022-09-06T00:57:07.684Z,5.85
2022-09-06T01:07:18.582Z,3.85
2022-09-06T01:17:33.448Z,5.72
2022-09-06T01:28:23.379Z,4.90
2022-09-06T01:38:27.510Z,4.30
2022-09-06T01:48:46.613Z,4.38
2022-09-06T01:59:20.955Z,5.03
2022-09-06T02:09:25.969Z,4.68
2022-09-06T02:19:34.899Z,4.70
2022-09-06T02:29:36.905Z,4.40
2022-09-06T02:39:40.711Z,7.97
2022-09-06T02:49:42.933Z,5.47
2022-09-06T02:59:46.322Z,5.78
2022-09-06T03:09:48.273Z,5.45
2022-09-06T03:19:51.630Z,5.63
2022-09-06T03:29:53.608Z,5.60
2022-09-06T03:39:57.013Z,5.25
2022-09-06T03:49:58.977Z,5.75
2022-09-06T04:00:02.765Z,6.25
2022-09-06T04:10:05.542Z,5.45
2022-09-06T04:20:09.496Z,5.95
2022-09-06T04:30:11.748Z,7.65
2022-09-06T04:40:15.223Z,8.32
2022-09-06T04:50:17.430Z,7.70
2022-09-06T05:00:21.022Z,9.23
2022-09-06T05:10:23.745Z,10.38
2022-09-06T05:20:27.096Z,10.48
2022-09-06T05:30:29.078Z,9.10
2022-09-06T05:40:32.409Z,9.30
2022-09-06T05:50:34.694Z,10.05
2022-09-06T06:00:38.464Z,10.35
2022-09-06T06:10:40.415Z,9.73
2022-09-06T06:20:43.787Z,9.10
2022-09-06T06:30:45.781Z,9.85
2022-09-06T06:40:49.120Z,8.32
2022-09-06T06:50:51.067Z,6.28
2022-09-06T07:00:54.529Z,7.00
2022-09-06T07:10:56.685Z,6.57
2022-09-06T07:41:45.469Z,4.65
2022-09-06T07:51:48.401Z,5.47
2022-09-06T08:01:51.764Z,4.90
2022-09-06T08:11:53.767Z,3.20
2022-09-06T08:21:57.261Z,4.90
2022-09-06T08:31:59.374Z,3.90
2022-09-06T08:42:05.909Z,3.55
2022-09-06T08:52:23.577Z,4.22
2022-09-06T09:02:28.190Z,5.85
2022-09-06T09:12:33.992Z,2.92
2022-09-06T09:22:37.801Z,3.20
2022-09-06T09:32:42.294Z,2.55
2022-09-06T09:42:45.659Z,3.85
2022-09-06T09:52:47.641Z,5.15
2022-09-06T10:02:50.980Z,2.55
2022-09-06T10:13:07.139Z,2.78
2022-09-06T10:23:16.414Z,2.72
2022-09-06T10:33:27.704Z,4.03
2022-09-06T10:43:39.931Z,2.35
2022-09-06T10:53:47.220Z,3.38
2022-09-06T11:14:02.458Z,2.97
2022-09-06T11:24:13.007Z,2.60
2022-09-06T11:34:21.538Z,2.87
2022-09-06T11:44:53.949Z,3.60
2022-09-06T11:54:56.266Z,3.72
2022-09-06T12:05:15.265Z,3.38
2022-09-06T12:15:25.231Z,3.88
2022-09-06T12:25:56.887Z,3.25
2022-09-06T12:36:14.129Z,3.28
2022-09-06T12:46:17.954Z,2.67
2022-09-06T12:56:22.624Z,3.15
2022-09-06T13:06:27.569Z,3.15
2022-09-06T13:16:36.378Z,2.95
2022-09-06T13:26:40.232Z,1.60
2022-09-06T13:36:48.333Z,3.42
2022-09-06T13:56:55.405Z,3.03
2022-09-06T14:06:58.954Z,4.57
2022-09-06T14:17:00.938Z,2.63
2022-09-06T14:27:04.639Z,2.15
2022-09-06T14:37:09.302Z,2.10
2022-09-06T14:57:18.128Z,2.35
2022-09-06T15:07:21.544Z,3.25
2022-09-06T15:17:23.637Z,2.80
2022-09-06T15:27:27.085Z,3.05
2022-09-06T15:37:29.093Z,3.22
2022-09-06T15:47:32.427Z,2.83
2022-09-06T15:57:34.390Z,3.70
2022-09-06T16:07:37.675Z,3.22
2022-09-06T16:17:39.753Z,3.28
2022-09-06T16:27:43.089Z,3.60
2022-09-06T16:37:45.038Z,2.33
2022-09-06T16:47:48.394Z,2.50
2022-09-06T16:57:50.370Z,1.83
2022-09-06T17:07:53.760Z,2.00
2022-09-06T17:17:55.752Z,1.75
2022-09-06T17:27:59.053Z,2.13
2022-09-06T17:38:00.998Z,2.17
2022-09-06T17:59:06.996Z,1.88
2022-09-06T18:09:11.711Z,2.72
2022-09-06T18:19:15.871Z,3.40
2022-09-06T18:29:17.797Z,2.08
2022-09-06T18:39:21.128Z,2.40
2022-09-06T18:49:23.277Z,3.05
2022-09-06T18:59:26.706Z,2.47
2022-09-06T19:09:28.708Z,3.35
2022-09-06T19:19:32.026Z,1.77
2022-09-06T19:29:33.984Z,2.17
2022-09-06T19:39:38.592Z,3.17
2022-09-06T19:49:40.750Z,2.72
2022-09-06T19:59:44.070Z,2.17
2022-09-06T20:09:49.461Z,2.53
2022-09-06T20:19:55.269Z,4.72
2022-09-06T20:29:57.282Z,2.40
2022-09-06T20:40:00.706Z,1.75
2022-09-06T20:50:02.874Z,3.67
2022-09-06T21:00:10.295Z,2.88
2022-09-06T21:10:15.788Z,2.10
2022-09-06T21:20:19.121Z,3.08
2022-09-06T21:30:21.056Z,2.80
2022-09-06T21:40:24.409Z,3.88
2022-09-06T21:50:26.349Z,2.25
2022-09-06T22:11:40.559Z,2.15
2022-09-06T22:21:42.713Z,2.28
2022-09-06T22:31:46.152Z,2.42
2022-09-06T22:41:48.157Z,3.03
2022-09-06T22:51:51.770Z,3.35
2022-09-06T23:01:53.792Z,2.20
2022-09-06T23:11:57.229Z,2.28
2022-09-06T23:21:59.292Z,2.15
2022-09-06T23:32:02.903Z,1.80
2022-09-06T23:42:05.091Z,2.15
2022-09-06T23:52:08.451Z,1.75
